Time;durP1;ratioP1;P1;durP2;ratioP2;P2;SDS_P1;SDS_P2;PMS_P1;PMS_P2;Temp;Humidity;BMP_temperature;BMP_pressure;BME280_temperature;BME280_humidity;BME280_pressure;Samples;Min_cycle;Max_cycle;Signal;HPM_P1;HPM_P2
2022/05/28 00:02:14;;;;;;;2.28;0.80;;;;;;;18.30;42.37;97768.16;5134389;27;20031;-67
2022/05/28 00:04:39;;;;;;;2.95;1.10;;;;;;;18.28;42.32;97757.66;5133999;27;20054;-67
2022/05/28 00:07:05;;;;;;;2.60;1.15;;;;;;;18.28;42.38;97751.47;5134385;27;20776;-67
2022/05/28 00:09:31;;;;;;;4.20;1.02;;;;;;;18.27;42.42;97745.31;5134083;27;20030;-67
2022/05/28 00:11:57;;;;;;;1.92;0.98;;;;;;;18.25;42.39;97744.69;5134536;27;20067;-67
2022/05/28 00:14:23;;;;;;;2.10;1.02;;;;;;;18.26;42.26;97729.44;5133953;27;20103;-67
2022/05/28 00:16:48;;;;;;;1.50;0.73;;;;;;;18.25;42.27;97731.31;5134172;27;20152;-67
2022/05/28 00:19:14;;;;;;;2.38;1.20;;;;;;;18.25;42.40;97727.81;5133716;27;20031;-67
2022/05/28 00:21:39;;;;;;;1.65;0.95;;;;;;;18.26;42.27;97721.41;5134405;27;20521;-67
2022/05/28 00:24:05;;;;;;;1.70;0.90;;;;;;;18.24;42.23;97716.28;5134014;27;20031;-67
2022/05/28 00:26:31;;;;;;;2.13;0.93;;;;;;;18.25;42.40;97709.06;5133970;27;20486;-67
2022/05/28 00:28:57;;;;;;;1.70;0.93;;;;;;;18.23;42.31;97714.66;5133620;27;20110;-67
2022/05/28 00:31:23;;;;;;;1.83;1.17;;;;;;;18.24;42.31;97705.59;5134227;27;20034;-67
2022/05/28 00:33:48;;;;;;;4.30;0.90;;;;;;;18.23;42.27;97708.50;5133745;27;20035;-67
2022/05/28 00:36:15;;;;;;;2.55;1.10;;;;;;;18.21;42.19;97706.00;5133933;27;20371;-67
2022/05/28 00:38:43;;;;;;;1.17;0.80;;;;;;;18.22;42.07;97704.97;5133711;27;20023;-67
2022/05/28 00:41:09;;;;;;;1.20;0.90;;;;;;;18.23;42.22;97701.25;5133851;27;20385;-67
2022/05/28 00:43:38;;;;;;;1.42;0.80;;;;;;;18.21;42.23;97702.53;5133543;27;20114;-67
2022/05/28 00:46:08;;;;;;;1.67;0.80;;;;;;;18.21;42.21;97689.94;5133873;27;20079;-65
2022/05/28 00:48:37;;;;;;;4.75;0.75;;;;;;;18.19;42.43;97689.34;5133558;27;20055;-66
2022/05/28 00:51:10;;;;;;;2.80;0.85;;;;;;;18.20;42.15;97688.31;5133550;28;20074;-66
2022/05/28 00:53:36;;;;;;;0.93;0.77;;;;;;;18.19;42.09;97689.34;5133599;28;20037;-66
2022/05/28 00:56:05;;;;;;;4.45;0.73;;;;;;;18.20;42.33;97679.47;5133773;28;20114;-67
2022/05/28 00:58:32;;;;;;;2.42;0.85;;;;;;;18.20;42.05;97685.63;5133488;27;20392;-66
2022/05/28 01:00:58;;;;;;;1.20;0.63;;;;;;;18.20;42.00;97684.81;5133430;28;20074;-66
2022/05/28 01:03:32;;;;;;;1.42;1.02;;;;;;;18.20;41.71;97685.63;5133616;27;20035;-66
2022/05/28 01:06:18;;;;;;;1.60;0.82;;;;;;;18.18;42.08;97687.69;5133624;28;20088;-66
2022/05/28 01:08:50;;;;;;;1.38;0.75;;;;;;;18.19;41.99;97693.88;5091432;27;20448;-66
2022/05/28 01:11:23;;;;;;;3.25;0.88;;;;;;;18.20;42.03;97690.19;5133322;28;20043;-66
2022/05/28 01:14:07;;;;;;;2.35;0.88;;;;;;;18.19;42.19;97697.38;5133176;27;20069;-66
2022/05/28 01:16:38;;;;;;;3.22;0.85;;;;;;;18.18;41.93;97693.03;5133301;28;20446;-66
2022/05/28 01:19:12;;;;;;;2.20;0.80;;;;;;;18.18;42.26;97695.72;5133208;27;20034;-67
2022/05/28 01:21:48;;;;;;;1.58;0.90;;;;;;;18.18;42.07;97679.66;5133534;28;20037;-67
2022/05/28 01:24:27;;;;;;;1.50;0.60;;;;;;;18.17;42.23;97682.56;5133176;27;20038;-67
2022/05/28 01:27:14;;;;;;;1.38;0.85;;;;;;;18.17;42.18;97678.03;5133077;28;20031;-67
2022/05/28 01:29:46;;;;;;;1.67;0.90;;;;;;;18.17;42.11;97675.34;5133337;27;20038;-67
2022/05/28 01:32:13;;;;;;;2.60;0.93;;;;;;;18.15;41.90;97659.50;5133316;28;20076;-67
2022/05/28 01:34:40;;;;;;;2.25;1.02;;;;;;;18.17;41.87;97664.63;5133367;27;20122;-67
2022/05/28 01:37:07;;;;;;;1.95;1.00;;;;;;;18.17;42.04;97659.28;5133426;27;20026;-68
2022/05/28 01:39:34;;;;;;;1.13;0.80;;;;;;;18.17;41.98;97663.84;5136259;27;20041;-66
2022/05/28 01:42:02;;;;;;;5.45;1.02;;;;;;;18.18;42.10;97665.47;5137172;27;20027;-66
2022/05/28 01:44:30;;;;;;;1.40;0.70;;;;;;;18.19;41.92;97661.75;5136766;27;20084;-66
2022/05/28 01:46:55;;;;;;;2.47;0.90;;;;;;;18.18;42.13;97663.59;5136659;27;20481;-66
2022/05/28 01:49:23;;;;;;;1.88;0.50;;;;;;;18.19;42.09;97657.22;5136649;27;20079;-66
2022/05/28 01:51:52;;;;;;;2.22;0.80;;;;;;;18.20;42.06;97660.72;5136746;27;20071;-66
2022/05/28 01:54:22;;;;;;;2.15;1.00;;;;;;;18.19;42.02;97656.41;5118648;27;20031;-67
2022/05/28 01:56:50;;;;;;;3.38;1.55;;;;;;;18.19;42.07;97654.53;5136388;27;20027;-66
2022/05/28 01:59:24;;;;;;;5.38;1.27;;;;;;;18.18;42.10;97649.41;5136803;27;20046;-66
2022/05/28 02:01:50;;;;;;;2.70;1.30;;;;;;;18.19;42.30;97651.88;5137092;27;20031;-66
2022/05/28 02:04:16;;;;;;;2.22;1.00;;;;;;;18.19;42.20;97651.06;5136739;27;20496;-66
2022/05/28 02:06:42;;;;;;;5.00;1.48;;;;;;;18.20;42.17;97642.81;5136349;27;20118;-66
2022/05/28 02:09:13;;;;;;;2.42;0.73;;;;;;;18.19;42.41;97641.16;5136403;27;20034;-66
2022/05/28 02:12:19;;;;;;;1.40;1.05;;;;;;;18.19;42.13;97633.13;5136291;27;20061;-66
2022/05/28 02:15:06;;;;;;;2.15;0.85;;;;;;;18.18;42.24;97634.16;5108705;27;20035;-66
2022/05/28 02:17:40;;;;;;;2.80;1.40;;;;;;;18.20;42.15;97633.97;5136583;27;20095;-66
2022/05/28 02:20:23;;;;;;;1.63;0.80;;;;;;;18.22;42.34;97638.06;5136202;27;20031;-67
2022/05/28 02:23:08;;;;;;;2.60;1.00;;;;;;;18.23;42.05;97626.31;5136348;27;20050;-66
2022/05/28 02:25:38;;;;;;;4.13;1.10;;;;;;;18.27;42.30;97632.88;5136090;27;20019;-66
2022/05/28 02:28:05;;;;;;;1.42;0.80;;;;;;;18.34;42.19;97632.81;5136426;27;20038;-66
2022/05/28 02:30:32;;;;;;;2.20;0.73;;;;;;;18.43;42.55;97633.38;5136278;27;20398;-66
2022/05/28 02:33:06;;;;;;;1.35;0.70;;;;;;;18.50;42.75;97636.81;5117440;27;20355;-66
2022/05/28 02:35:32;;;;;;;5.30;1.27;;;;;;;18.54;42.84;97638.00;5135894;27;20050;-66
2022/05/28 02:37:58;;;;;;;3.50;1.23;;;;;;;18.57;43.13;97637.59;5135873;27;20027;-66
2022/05/28 02:40:24;;;;;;;1.98;1.10;;;;;;;18.59;43.19;97640.03;5136116;27;20106;-66
2022/05/28 02:42:49;;;;;;;3.40;1.00;;;;;;;18.60;43.16;97628.28;5135759;27;20528;-66
2022/05/28 02:45:15;;;;;;;3.80;1.13;;;;;;;18.60;43.24;97630.97;5136100;27;20485;-66
2022/05/28 02:47:41;;;;;;;2.65;1.30;;;;;;;18.59;43.21;97632.84;5135971;27;20061;-66
2022/05/28 02:50:08;;;;;;;2.47;1.10;;;;;;;18.63;43.20;97637.72;5135739;27;20042;-66
2022/05/28 02:52:34;;;;;;;4.63;1.17;;;;;;;18.63;43.18;97629.69;5135427;27;20047;-66
2022/05/28 02:55:00;;;;;;;2.35;1.10;;;;;;;18.62;43.29;97626.19;5135495;27;20034;-66
2022/05/28 02:57:25;;;;;;;2.38;1.25;;;;;;;18.65;43.08;97623.09;5135605;27;20095;-66
2022/05/28 02:59:51;;;;;;;1.50;1.02;;;;;;;18.64;42.98;97624.13;5135998;27;20462;-66
2022/05/28 03:02:16;;;;;;;4.18;1.23;;;;;;;18.65;42.92;97632.97;5135735;27;20030;-66
2022/05/28 03:04:41;;;;;;;4.60;1.60;;;;;;;18.65;43.01;97622.25;5135454;27;20490;-67
2022/05/28 03:07:07;;;;;;;4.55;1.25;;;;;;;18.66;43.05;97618.53;5135058;27;20054;-67
2022/05/28 03:09:33;;;;;;;3.70;1.42;;;;;;;18.66;42.91;97610.50;5135458;27;20023;-66
2022/05/28 03:11:59;;;;;;;2.78;1.42;;;;;;;18.66;42.95;97608.66;5135077;27;20055;-67
2022/05/28 03:14:25;;;;;;;5.22;1.75;;;;;;;18.66;42.83;97605.16;5135079;27;20081;-67
2022/05/28 03:16:52;;;;;;;2.92;1.48;;;;;;;18.68;42.79;97608.44;5134881;27;20485;-66
2022/05/28 03:19:17;;;;;;;4.40;1.63;;;;;;;18.66;42.78;97600.63;5135068;27;20046;-66
2022/05/28 03:21:43;;;;;;;4.75;1.60;;;;;;;18.67;42.74;97601.44;5135351;27;20026;-67
2022/05/28 03:24:09;;;;;;;5.30;1.38;;;;;;;18.67;42.75;97599.59;5134856;27;20027;-67
2022/05/28 03:26:35;;;;;;;8.32;1.98;;;;;;;18.72;42.65;97596.25;5134542;27;20569;-66
2022/05/28 03:29:01;;;;;;;5.32;1.38;;;;;;;18.85;42.81;97595.25;5135033;27;20037;-67
2022/05/28 03:31:28;;;;;;;5.07;1.80;;;;;;;19.02;42.89;97595.53;5134989;27;20027;-67
2022/05/28 03:33:54;;;;;;;4.70;2.30;;;;;;;19.21;42.71;97591.78;5134994;27;20027;-67
2022/05/28 03:36:21;;;;;;;5.88;1.65;;;;;;;19.39;42.71;97592.03;5134799;27;20080;-66
2022/05/28 03:38:46;;;;;;;4.03;1.65;;;;;;;19.48;42.53;97594.13;5134572;27;20023;-67
2022/05/28 03:41:13;;;;;;;3.63;1.48;;;;;;;19.54;42.70;97586.25;5134838;27;20027;-67
2022/05/28 03:43:38;;;;;;;3.60;1.63;;;;;;;19.56;42.50;97584.97;5134717;27;20089;-67
2022/05/28 03:46:04;;;;;;;4.90;1.60;;;;;;;19.58;42.46;97577.50;5134652;27;20194;-67
2022/05/28 03:48:33;;;;;;;2.33;1.63;;;;;;;19.64;42.51;97581.13;5134661;27;20510;-66
2022/05/28 03:50:58;;;;;;;5.45;1.63;;;;;;;19.69;42.39;97577.81;5134251;27;20055;-67
2022/05/28 03:53:24;;;;;;;2.85;1.55;;;;;;;19.75;42.38;97577.69;5134796;27;20080;-67
2022/05/28 03:55:51;;;;;;;2.55;1.27;;;;;;;19.80;42.41;97579.69;5134435;27;20035;-66
2022/05/28 03:58:16;;;;;;;3.88;1.77;;;;;;;19.84;42.19;97575.50;5134143;27;20031;-66
2022/05/28 04:00:42;;;;;;;3.92;1.52;;;;;;;19.83;42.46;97573.88;5133928;27;20027;-67
2022/05/28 04:03:07;;;;;;;2.35;1.48;;;;;;;19.84;42.17;97567.47;5134395;27;20057;-67
2022/05/28 04:05:35;;;;;;;4.80;1.65;;;;;;;19.86;42.30;97570.72;5134197;27;20031;-65
2022/05/28 04:08:00;;;;;;;3.72;1.50;;;;;;;19.87;42.18;97568.88;5134094;27;20038;-67
2022/05/28 04:10:25;;;;;;;11.27;2.20;;;;;;;19.85;42.20;97558.38;5134410;27;20027;-66
2022/05/28 04:12:51;;;;;;;3.10;1.63;;;;;;;19.82;42.12;97567.66;5133879;27;20029;-67
2022/05/28 04:15:16;;;;;;;4.00;1.73;;;;;;;19.79;42.27;97560.06;5134061;27;20497;-66
2022/05/28 04:17:42;;;;;;;2.88;1.55;;;;;;;19.75;42.21;97571.50;5134414;27;20113;-67
2022/05/28 04:20:10;;;;;;;3.10;1.55;;;;;;;19.72;42.19;97566.59;5134125;27;20038;-66
2022/05/28 04:22:36;;;;;;;3.65;1.50;;;;;;;19.67;42.20;97568.09;5133821;27;20031;-67
2022/05/28 04:25:02;;;;;;;2.35;0.95;;;;;;;19.66;42.04;97568.31;5133358;27;20482;-65
2022/05/28 04:27:27;;;;;;;4.65;1.33;;;;;;;19.64;41.97;97575.78;5133855;27;20070;-67
2022/05/28 04:29:53;;;;;;;3.08;1.63;;;;;;;19.60;42.17;97567.38;5133771;27;20131;-67
2022/05/28 04:32:18;;;;;;;3.58;1.20;;;;;;;19.61;42.07;97573.56;5133648;27;20058;-66
2022/05/28 04:34:44;;;;;;;2.35;1.50;;;;;;;19.60;42.00;97571.94;5133474;27;20042;-66
2022/05/28 04:37:10;;;;;;;5.05;1.70;;;;;;;19.59;42.01;97567.59;5133588;27;20062;-66
2022/05/28 04:39:35;;;;;;;4.82;1.05;;;;;;;19.59;41.73;97573.78;5133699;27;20037;-66
2022/05/28 04:42:01;;;;;;;6.82;1.80;;;;;;;19.59;42.03;97570.28;5133875;27;20106;-66
2022/05/28 04:44:26;;;;;;;2.85;1.33;;;;;;;19.63;42.01;97572.28;5133527;27;20650;-67
2022/05/28 04:46:52;;;;;;;3.58;1.27;;;;;;;19.65;41.92;97569.38;5133401;27;20057;-66
2022/05/28 04:49:17;;;;;;;4.07;1.95;;;;;;;19.69;41.92;97581.28;5133757;27;20080;-66
2022/05/28 04:51:43;;;;;;;5.57;1.52;;;;;;;19.73;41.90;97579.78;5133685;28;20398;-67
2022/05/28 04:54:08;;;;;;;3.70;1.35;;;;;;;19.75;41.88;97577.69;5133894;27;20499;-67
2022/05/28 04:56:34;;;;;;;4.18;1.33;;;;;;;19.77;41.84;97580.16;5133528;28;20105;-67
2022/05/28 04:58:59;;;;;;;2.80;1.40;;;;;;;19.77;41.84;97578.28;5133884;27;20382;-67
2022/05/28 05:01:25;;;;;;;3.28;1.55;;;;;;;19.78;42.13;97577.22;5133400;28;20031;-66
2022/05/28 05:03:51;;;;;;;2.67;1.48;;;;;;;19.79;41.80;97573.50;5133527;27;20039;-66
2022/05/28 05:06:16;;;;;;;3.40;1.58;;;;;;;19.79;41.76;97581.53;5133217;28;20401;-66
2022/05/28 05:08:43;;;;;;;3.83;1.40;;;;;;;19.79;41.87;97578.84;5133697;27;20035;-67
2022/05/28 05:11:08;;;;;;;3.33;1.20;;;;;;;19.78;41.92;97568.38;5133465;28;20402;-67
2022/05/28 05:13:34;;;;;;;2.75;1.42;;;;;;;19.76;41.67;97576.66;5135185;27;20063;-68
2022/05/28 05:15:59;;;;;;;2.92;1.42;;;;;;;19.75;41.78;97576.88;5137446;27;20042;-68
2022/05/28 05:18:25;;;;;;;4.47;1.58;;;;;;;19.75;41.85;97571.50;5137569;27;20066;-68
2022/05/28 05:20:50;;;;;;;6.07;1.40;;;;;;;19.73;41.86;97574.44;5137333;27;20027;-68
2022/05/28 05:23:17;;;;;;;3.47;1.35;;;;;;;19.71;41.66;97579.19;5137928;27;20027;-68
2022/05/28 05:25:43;;;;;;;4.28;1.40;;;;;;;19.71;41.68;97575.69;5137197;27;20060;-68
2022/05/28 05:28:09;;;;;;;5.22;1.15;;;;;;;19.69;41.77;97575.13;5137131;27;20031;-68
2022/05/28 05:30:34;;;;;;;2.95;1.40;;;;;;;19.69;41.72;97573.22;5137447;27;20103;-68
2022/05/28 05:33:00;;;;;;;3.83;1.48;;;;;;;19.68;41.81;97579.66;5137488;27;20546;-68
2022/05/28 05:35:25;;;;;;;1.92;1.27;;;;;;;19.67;41.75;97578.00;5118808;27;20042;-68
2022/05/28 05:37:51;;;;;;;4.88;1.52;;;;;;;19.67;41.74;97575.31;5137546;27;20469;-68
2022/05/28 05:40:16;;;;;;;2.35;1.25;;;;;;;19.66;41.58;97568.31;5137315;27;20039;-68
2022/05/28 05:42:42;;;;;;;2.90;1.38;;;;;;;19.65;41.77;97572.88;5137317;27;20031;-68
2022/05/28 05:45:09;;;;;;;2.50;1.20;;;;;;;19.66;41.81;97571.84;5136610;27;20083;-67
2022/05/28 05:47:35;;;;;;;2.53;1.10;;;;;;;19.65;41.59;97577.41;5137142;27;20031;-67
2022/05/28 05:50:01;;;;;;;2.10;1.38;;;;;;;19.65;41.59;97577.41;5136695;27;20114;-67
2022/05/28 05:52:26;;;;;;;2.95;1.30;;;;;;;19.63;41.62;97585.69;5136717;27;20055;-68
2022/05/28 05:54:52;;;;;;;3.13;1.10;;;;;;;19.62;41.66;97584.06;5136410;27;20042;-67
2022/05/28 05:57:18;;;;;;;2.42;1.25;;;;;;;19.60;41.57;97583.47;5136644;27;20042;-68
2022/05/28 05:59:44;;;;;;;3.33;1.88;;;;;;;19.58;41.49;97584.75;5136582;27;20035;-67
2022/05/28 06:02:10;;;;;;;3.15;1.83;;;;;;;19.56;41.62;97586.84;5136825;27;20033;-68
2022/05/28 06:04:36;;;;;;;3.58;1.50;;;;;;;19.55;41.50;97585.19;5135885;27;20460;-68
2022/05/28 06:07:06;;;;;;;3.50;1.33;;;;;;;19.54;41.43;97600.50;5136997;27;20039;-68
2022/05/28 06:09:32;;;;;;;4.57;1.60;;;;;;;19.51;41.46;97585.66;5136473;27;20122;-68
2022/05/28 06:11:57;;;;;;;2.60;1.67;;;;;;;19.48;41.56;97594.13;5136486;27;20133;-68
2022/05/28 06:14:22;;;;;;;4.45;1.45;;;;;;;19.49;41.64;97594.97;5136056;27;20031;-67
2022/05/28 06:16:48;;;;;;;5.45;1.20;;;;;;;19.46;41.58;97590.88;5136329;27;20092;-67
2022/05/28 06:19:14;;;;;;;2.33;1.77;;;;;;;19.46;41.54;97592.72;5136468;27;20045;-67
2022/05/28 06:21:39;;;;;;;2.33;1.17;;;;;;;19.44;41.75;97595.66;5136493;27;20038;-67
2022/05/28 06:24:05;;;;;;;2.17;1.50;;;;;;;19.43;41.64;97590.50;5135603;27;20513;-67
2022/05/28 06:26:30;;;;;;;3.33;1.63;;;;;;;19.40;41.89;97591.78;5136269;27;20027;-67
2022/05/28 06:28:56;;;;;;;4.50;1.52;;;;;;;19.40;41.87;97597.16;5135985;27;20035;-67
2022/05/28 06:31:22;;;;;;;2.15;1.25;;;;;;;19.39;41.92;97602.75;5136232;27;20084;-67
2022/05/28 06:33:47;;;;;;;4.13;1.85;;;;;;;19.39;41.97;97600.06;5135997;27;20062;-67
2022/05/28 06:36:13;;;;;;;7.47;1.60;;;;;;;19.38;41.93;97607.28;5136244;27;20042;-67
2022/05/28 06:38:40;;;;;;;3.13;1.60;;;;;;;19.38;42.02;97603.78;5135688;27;20031;-67
2022/05/28 06:41:06;;;;;;;3.63;1.13;;;;;;;19.38;41.91;97603.78;5135865;27;20042;-67
2022/05/28 06:43:32;;;;;;;2.22;1.10;;;;;;;19.36;42.04;97601.31;5135956;27;20042;-67
2022/05/28 06:46:06;;;;;;;1.90;1.30;;;;;;;19.39;42.18;97600.06;5117248;27;20035;-67
2022/05/28 06:48:32;;;;;;;3.47;1.00;;;;;;;19.36;41.99;97607.50;5135930;27;20095;-67
2022/05/28 06:51:04;;;;;;;1.52;0.88;;;;;;;19.38;41.81;97614.50;5135518;27;20145;-67
2022/05/28 06:53:31;;;;;;;1.48;1.02;;;;;;;19.39;41.99;97605.44;5135695;27;20027;-67
2022/05/28 06:55:56;;;;;;;2.15;1.17;;;;;;;19.35;41.98;97611.25;5113454;28;20035;-67
2022/05/28 06:58:22;;;;;;;2.33;1.13;;;;;;;19.34;42.18;97614.13;5115031;28;20100;-66
2022/05/28 07:00:48;;;;;;;1.90;1.30;;;;;;;19.36;42.17;97614.72;5114761;28;20058;-67
2022/05/28 07:03:15;;;;;;;1.50;1.20;;;;;;;19.35;42.04;97608.56;5114875;28;20032;-67
2022/05/28 07:05:41;;;;;;;3.20;1.52;;;;;;;19.38;42.04;97614.50;5114683;28;20031;-67
2022/05/28 07:08:07;;;;;;;1.63;1.25;;;;;;;19.36;41.93;97612.88;5114932;28;20042;-67
2022/05/28 07:10:33;;;;;;;5.60;1.65;;;;;;;19.39;41.95;97622.31;5114830;28;20039;-67
2022/05/28 07:12:58;;;;;;;5.07;2.30;;;;;;;19.41;41.90;97620.25;5114437;28;20657;-67
2022/05/28 07:15:24;;;;;;;2.58;1.55;;;;;;;19.40;41.63;97623.97;5114434;28;20046;-67
2022/05/28 07:17:49;;;;;;;3.33;1.38;;;;;;;19.42;41.89;97634.44;5114559;28;20092;-67
2022/05/28 07:20:15;;;;;;;2.80;1.45;;;;;;;19.43;42.16;97628.03;5114747;28;20035;-67
2022/05/28 07:22:41;;;;;;;1.90;1.17;;;;;;;19.44;41.96;97633.22;5114516;28;20035;-66
2022/05/28 07:25:08;;;;;;;2.63;1.85;;;;;;;19.47;41.98;97629.25;5116555;27;20439;-67
2022/05/28 07:27:34;;;;;;;1.73;1.13;;;;;;;19.48;42.18;97630.88;5135125;27;20405;-67
2022/05/28 07:29:59;;;;;;;2.17;1.33;;;;;;;19.47;42.11;97634.59;5134660;27;20027;-67
2022/05/28 07:32:29;;;;;;;4.60;1.35;;;;;;;19.48;41.98;97642.41;5134700;27;20535;-67
2022/05/28 07:34:55;;;;;;;2.42;1.13;;;;;;;19.47;42.03;97642.66;5134665;27;20059;-67
2022/05/28 07:37:21;;;;;;;2.35;1.10;;;;;;;19.47;41.91;97639.97;5134194;27;20031;-68
2022/05/28 07:39:46;;;;;;;1.85;1.20;;;;;;;19.46;42.00;97644.53;5134725;27;20046;-67
2022/05/28 07:42:12;;;;;;;3.95;1.20;;;;;;;19.46;41.94;97647.22;5134758;27;20115;-67
2022/05/28 07:44:37;;;;;;;2.38;1.20;;;;;;;19.47;41.87;97651.53;5134802;27;20035;-67
2022/05/28 07:47:05;;;;;;;2.33;1.20;;;;;;;19.46;41.87;97651.75;5134419;27;20034;-68
2022/05/28 07:49:30;;;;;;;4.03;1.00;;;;;;;19.45;42.05;97653.63;5134527;27;20117;-67
2022/05/28 07:51:56;;;;;;;4.78;1.25;;;;;;;19.45;41.94;97658.16;5134243;27;20129;-67
2022/05/28 07:54:21;;;;;;;2.72;1.13;;;;;;;19.46;41.93;97665.16;5134407;27;20035;-68
2022/05/28 07:56:47;;;;;;;2.05;1.15;;;;;;;19.46;41.99;97667.84;5134682;27;20474;-68
2022/05/28 07:59:12;;;;;;;2.83;1.05;;;;;;;19.45;41.80;97666.19;5134470;27;20031;-68
2022/05/28 08:01:41;;;;;;;1.73;0.98;;;;;;;19.45;41.81;97672.41;5134292;27;20478;-67
2022/05/28 08:04:09;;;;;;;3.65;1.40;;;;;;;19.47;41.86;97678.34;5134048;27;20126;-67
2022/05/28 08:06:35;;;;;;;3.88;1.25;;;;;;;19.47;41.61;97683.72;5134378;27;20452;-68
2022/05/28 08:09:02;;;;;;;2.42;1.10;;;;;;;19.46;41.54;97679.41;5134227;27;20031;-67
2022/05/28 08:11:27;;;;;;;2.70;0.93;;;;;;;19.48;41.54;97690.69;5134036;27;20039;-67
2022/05/28 08:13:54;;;;;;;2.10;1.05;;;;;;;19.48;41.47;97689.88;5134376;27;20046;-66
2022/05/28 08:16:19;;;;;;;3.25;1.30;;;;;;;19.52;41.67;97686.53;5133924;27;20494;-67
2022/05/28 08:18:45;;;;;;;2.35;1.30;;;;;;;19.53;41.60;97682.00;5133882;27;20031;-67
2022/05/28 08:23:56;;;;;;;3.83;1.00;;;;;;;19.59;41.63;97691.00;5133642;27;20030;-67
2022/05/28 08:26:22;;;;;;;1.52;0.93;;;;;;;19.60;41.71;97693.44;5134147;27;20084;-66
2022/05/28 08:28:49;;;;;;;2.03;1.00;;;;;;;19.64;41.68;97696.50;5134046;27;20087;-66
2022/05/28 08:31:15;;;;;;;3.20;0.98;;;;;;;19.67;41.57;97696.91;5133951;27;20042;-67
2022/05/28 08:33:42;;;;;;;2.85;1.10;;;;;;;19.69;41.62;97702.03;5133775;27;20121;-66
2022/05/28 08:36:08;;;;;;;1.55;0.82;;;;;;;19.71;41.57;97697.25;5134155;27;20118;-67
2022/05/28 08:38:34;;;;;;;1.58;1.00;;;;;;;19.72;41.33;97704.25;5133836;27;20038;-67
2022/05/28 08:41:08;;;;;;;4.38;2.50;;;;;;;19.73;41.48;97707.75;5134166;27;20424;-66
2022/05/28 08:43:36;;;;;;;1.92;0.98;;;;;;;19.72;41.53;97711.47;5133206;27;20042;-66
2022/05/28 08:46:03;;;;;;;1.88;0.75;;;;;;;19.69;41.47;97714.63;5133929;27;20390;-67
2022/05/28 08:48:47;;;;;;;1.38;1.08;;;;;;;19.66;41.28;97724.75;5133310;27;20031;-67
2022/05/28 08:51:38;;;;;;;2.45;1.10;;;;;;;19.63;41.32;97729.75;5133406;27;20055;-66
2022/05/28 08:54:26;;;;;;;4.82;1.15;;;;;;;19.58;41.25;97735.78;5133337;28;20042;-67
2022/05/28 08:56:55;;;;;;;2.53;1.00;;;;;;;19.57;41.42;97741.38;5133693;28;20058;-67
2022/05/28 08:59:31;;;;;;;2.40;1.10;;;;;;;19.56;41.50;97748.59;5133631;28;20035;-67
2022/05/28 09:01:57;;;;;;;2.45;1.27;;;;;;;19.52;41.71;97740.19;5133473;28;20030;-68
2022/05/28 09:04:35;;;;;;;4.25;1.40;;;;;;;19.52;41.75;97745.53;5133017;28;20027;-66
2022/05/28 09:07:04;;;;;;;1.00;0.57;;;;;;;19.51;41.97;97743.09;5133902;28;20075;-67
2022/05/28 09:09:40;;;;;;;2.17;0.90;;;;;;;19.54;42.07;97747.19;5114651;28;20401;-67
2022/05/28 09:12:10;;;;;;;2.22;0.90;;;;;;;19.54;42.16;97733.78;5133552;28;20023;-67
2022/05/28 09:14:38;;;;;;;2.40;0.95;;;;;;;19.55;42.23;97751.50;5133268;27;20024;-67
2022/05/28 09:17:19;;;;;;;2.17;1.05;;;;;;;19.56;42.22;97753.97;5133521;28;20035;-67
2022/05/28 09:19:45;;;;;;;2.85;1.58;;;;;;;19.55;42.27;97759.56;5132933;27;20030;-67
2022/05/28 09:22:10;;;;;;;1.83;0.85;;;;;;;19.55;42.23;97757.72;5133155;28;20035;-67
2022/05/28 09:24:39;;;;;;;5.22;1.48;;;;;;;19.57;42.65;97763.66;5133234;27;20027;-67
2022/05/28 09:27:47;;;;;;;5.40;1.60;;;;;;;19.57;42.80;97762.84;5133160;28;20069;-67
2022/05/28 09:30:22;;;;;;;6.93;5.30;;;;;;;19.57;42.88;97765.53;5133073;28;20166;-67
2022/05/28 09:32:59;;;;;;;31.30;22.75;;;;;;;19.55;43.31;97773.81;5132787;28;20100;-67
2022/05/28 09:35:56;;;;;;;36.17;24.13;;;;;;;19.55;43.71;97778.34;5132955;28;20023;-68
2022/05/28 09:38:43;;;;;;;32.40;22.02;;;;;;;19.52;43.85;97784.97;5133464;28;20483;-67
2022/05/28 09:41:19;;;;;;;40.60;28.25;;;;;;;19.51;44.19;97780.66;5133180;28;20030;-68
2022/05/28 09:44:17;;;;;;;38.88;27.92;;;;;;;19.51;44.20;97791.38;5133243;28;20478;-67
2022/05/28 09:46:44;;;;;;;39.40;27.70;;;;;;;19.52;44.43;97798.38;5133124;28;20027;-68
2022/05/28 09:49:15;;;;;;;27.70;19.20;;;;;;;19.52;44.53;97793.81;5132702;28;20111;-68
2022/05/28 09:52:05;;;;;;;33.45;20.45;;;;;;;19.54;44.58;97796.31;5132737;28;20039;-68
2022/05/28 09:54:33;;;;;;;36.33;26.60;;;;;;;19.56;44.77;97799.56;5132962;28;20035;-68
2022/05/28 09:57:24;;;;;;;31.15;23.77;;;;;;;19.58;45.13;97807.41;5133131;28;20431;-66
2022/05/28 09:59:59;;;;;;;;;;;;;;;19.54;45.30;97811.56;5132047;27;20463;-68
2022/05/28 10:02:43;;;;;;;30.73;22.70;;;;;;;19.58;45.19;97815.44;5136649;27;19915;-67
2022/05/28 10:05:16;;;;;;;34.25;24.98;;;;;;;19.61;45.33;97812.34;5117981;27;20058;-67
2022/05/28 10:07:52;;;;;;;37.63;26.00;;;;;;;19.62;45.51;97813.97;5136168;27;20071;-67
2022/05/28 10:10:29;;;;;;;33.55;20.55;;;;;;;19.62;45.19;97820.16;5136875;27;20039;-67
2022/05/28 10:13:15;;;;;;;41.10;28.10;;;;;;;19.66;45.55;97825.88;5136191;27;20035;-67
2022/05/28 10:15:55;;;;;;;38.17;27.55;;;;;;;19.70;45.57;97821.72;5136353;27;20508;-68
2022/05/28 10:18:25;;;;;;;29.27;21.38;;;;;;;19.73;45.44;97823.97;5135909;27;20041;-67
2022/05/28 10:21:07;;;;;;;40.78;31.95;;;;;;;19.77;45.51;97827.03;5136494;27;20035;-68
2022/05/28 10:23:35;;;;;;;46.35;33.85;;;;;;;19.81;45.40;97826.34;5136266;27;20054;-69
2022/05/28 10:26:01;;;;;;;40.45;29.92;;;;;;;19.85;45.41;97832.09;5135959;27;20030;-69
2022/05/28 10:28:44;;;;;;;37.78;28.98;;;;;;;19.89;45.39;97833.31;5136044;27;20408;-68
2022/05/28 10:31:22;;;;;;;36.75;27.17;;;;;;;19.94;45.16;97838.00;5136432;27;20034;-68
2022/05/28 10:33:48;;;;;;;43.20;32.42;;;;;;;19.96;45.19;97830.56;5136173;27;20035;-69
2022/05/28 10:36:17;;;;;;;42.83;32.03;;;;;;;19.99;45.24;97827.44;5135926;27;20398;-68
2022/05/28 10:38:43;;;;;;;32.17;26.67;;;;;;;20.01;44.95;97821.81;5135650;27;20113;-68
2022/05/28 10:41:20;;;;;;;33.42;26.98;;;;;;;20.01;44.89;97822.66;5136386;27;20443;-69
2022/05/28 10:43:47;;;;;;;33.45;26.20;;;;;;;20.04;44.89;97827.59;5135788;27;20035;-69
2022/05/28 10:46:43;;;;;;;38.50;30.13;;;;;;;20.07;44.75;97827.09;5135897;27;20031;-69
2022/05/28 10:49:27;;;;;;;37.35;27.23;;;;;;;20.08;44.73;97834.13;5135769;27;20095;-68
2022/05/28 10:52:28;;;;;;;38.95;31.40;;;;;;;20.08;44.53;97828.75;5135246;27;20126;-69
2022/05/28 10:55:07;;;;;;;28.23;19.73;;;;;;;20.06;44.65;97830.03;5130467;27;20039;-69
2022/05/28 10:57:45;;;;;;;35.25;27.00;;;;;;;20.06;44.43;97830.88;5135446;27;20031;-68
2022/05/28 11:00:15;;;;;;;23.95;19.77;;;;;;;20.07;44.29;97834.34;5135454;27;20034;-69
2022/05/28 11:03:05;;;;;;;31.67;24.55;;;;;;;20.04;44.09;97830.28;5135471;27;20031;-68
2022/05/28 11:05:52;;;;;;;24.10;18.23;;;;;;;20.03;44.17;97838.53;5135604;27;20613;-68
2022/05/28 11:08:39;;;;;;;21.00;17.63;;;;;;;20.03;44.10;97843.91;5135534;27;20030;-69
2022/05/28 11:11:33;;;;;;;26.60;19.98;;;;;;;20.01;43.95;97848.66;5135321;27;20031;-67
2022/05/28 11:14:17;;;;;;;21.13;16.48;;;;;;;20.00;43.65;97845.19;5134867;27;20050;-68
2022/05/28 11:16:46;;;;;;;18.75;13.38;;;;;;;20.02;43.67;97843.09;5135047;27;20062;-67
2022/05/28 11:19:11;;;;;;;19.30;12.75;;;;;;;20.03;43.49;97838.53;5135248;27;20046;-68
2022/05/28 11:21:58;;;;;;;24.58;20.20;;;;;;;20.06;43.39;97838.09;5134719;27;20405;-67
2022/05/28 11:24:49;;;;;;;21.45;16.92;;;;;;;20.06;43.33;97841.59;5134793;27;20137;-68
2022/05/28 11:27:43;;;;;;;22.63;16.33;;;;;;;20.08;43.32;97844.06;5135037;27;20030;-67
2022/05/28 11:30:20;;;;;;;21.17;17.52;;;;;;;20.08;43.33;97852.09;5134935;27;20084;-67
2022/05/28 11:33:21;;;;;;;22.42;18.30;;;;;;;20.12;43.26;97846.06;5134664;27;20483;-68
2022/05/28 11:35:55;;;;;;;24.30;17.75;;;;;;;20.12;43.02;97847.94;5102690;27;20459;-67
2022/05/28 11:38:31;;;;;;;21.52;17.73;;;;;;;20.15;43.16;97843.97;5134364;27;20039;-67
2022/05/28 11:41:25;;;;;;;18.60;14.90;;;;;;;20.17;42.95;97852.63;5134399;27;20034;-67
2022/05/28 11:44:19;;;;;;;23.92;16.65;;;;;;;20.16;42.70;97857.16;5135023;27;20167;-67
2022/05/28 11:47:22;;;;;;;17.20;13.68;;;;;;;20.16;42.57;97864.41;5134619;27;20038;-67
2022/05/28 11:52:56;;;;;;;19.08;15.00;;;;;;;20.19;42.62;97882.78;5134033;27;20092;-67